Time;durP1;ratioP1;P1;durP2;ratioP2;P2;SDS_P1;SDS_P2;PMS_P1;PMS_P2;Temp;Humidity;BMP_temperature;BMP_pressure;BME280_temperature;BME280_humidity;BME280_pressure;Samples;Min_cycle;Max_cycle;Signal;HPM_P1;HPM_P2
2021/03/23 00:00:58;;;;;;;20.20;5.47;;;;;;;0.19;100.00;94428.50;5095684;28;20661;-78
2021/03/23 00:03:26;;;;;;;13.67;4.30;;;;;;;0.13;100.00;94431.53;5095808;28;20198;-77
2021/03/23 00:05:53;;;;;;;10.97;5.07;;;;;;;0.16;100.00;94431.31;5095818;28;20194;-77
2021/03/23 00:08:26;;;;;;;12.37;4.80;;;;;;;0.15;100.00;94429.66;5095872;28;20212;-78
2021/03/23 00:10:54;;;;;;;10.67;4.70;;;;;;;0.36;100.00;94430.53;5095652;28;20194;-78
2021/03/23 00:13:20;;;;;;;21.13;5.20;;;;;;;0.31;100.00;94426.72;5095541;28;20198;-78
2021/03/23 00:15:47;;;;;;;9.63;4.53;;;;;;;0.24;100.00;94418.69;5095645;28;20096;-79
2021/03/23 00:18:13;;;;;;;13.07;5.17;;;;;;;0.24;100.00;94423.81;5095723;28;20202;-79
2021/03/23 00:20:40;;;;;;;13.90;5.07;;;;;;;0.30;100.00;94430.22;5095450;28;20201;-79
2021/03/23 00:23:06;;;;;;;16.23;5.63;;;;;;;0.33;100.00;94428.25;5095305;28;20209;-78
2021/03/23 00:25:32;;;;;;;12.60;5.10;;;;;;;0.34;100.00;94431.63;5095391;28;20205;-80
2021/03/23 00:28:01;;;;;;;9.10;4.70;;;;;;;0.22;100.00;94423.13;5095236;28;20530;-79
2021/03/23 00:30:28;;;;;;;13.67;5.13;;;;;;;0.21;100.00;94425.81;5095244;28;20202;-79
2021/03/23 00:32:54;;;;;;;16.13;4.57;;;;;;;0.24;100.00;94428.16;5095187;28;20226;-80
2021/03/23 00:35:21;;;;;;;12.07;5.30;;;;;;;0.28;100.00;94435.47;5095257;28;20209;-78
2021/03/23 00:37:50;;;;;;;14.23;5.17;;;;;;;0.08;100.00;94426.75;5095030;28;20753;-77
2021/03/23 00:40:19;;;;;;;14.50;5.30;;;;;;;0.03;100.00;94425.50;5095140;28;20194;-80
2021/03/23 00:42:45;;;;;;;10.63;5.30;;;;;;;0.02;100.00;94423.88;5095334;28;20297;-79
2021/03/23 00:45:14;;;;;;;13.90;5.40;;;;;;;0.09;100.00;94425.03;5095215;28;20201;-78
2021/03/23 00:47:40;;;;;;;9.03;4.73;;;;;;;0.05;100.00;94415.94;5094445;28;20201;-77
2021/03/23 00:50:07;;;;;;;13.03;5.43;;;;;;;0.08;100.00;94425.97;5094958;28;20213;-80
2021/03/23 00:52:33;;;;;;;11.03;4.77;;;;;;;0.06;100.00;94420.13;5094849;28;20202;-78
2021/03/23 00:54:59;;;;;;;11.53;4.50;;;;;;;0.08;100.00;94428.53;5094743;28;20249;-78
2021/03/23 00:57:25;;;;;;;11.07;5.07;;;;;;;0.10;100.00;94424.09;5094643;28;20222;-81
2021/03/23 00:59:51;;;;;;;13.70;4.73;;;;;;;-0.02;100.00;94419.00;5094902;28;20194;-79
2021/03/23 01:02:18;;;;;;;8.63;4.67;;;;;;;0.00;100.00;94424.00;5094821;28;20613;-78
2021/03/23 01:04:45;;;;;;;11.20;4.60;;;;;;;-0.02;100.00;94426.69;5094706;28;20209;-79
2021/03/23 01:07:11;;;;;;;17.17;6.45;;;;;;;-0.02;100.00;94424.13;5093950;28;20437;-79
2021/03/23 01:09:37;;;;;;;10.37;5.90;;;;;;;-0.03;100.00;94421.69;5094572;28;20247;-78
2021/03/23 01:12:05;;;;;;;20.33;6.03;;;;;;;0.05;100.00;94418.50;5094615;28;20247;-80
2021/03/23 01:14:31;;;;;;;13.40;5.03;;;;;;;0.10;100.00;94421.50;5094372;28;20212;-80
2021/03/23 01:16:57;;;;;;;10.43;5.13;;;;;;;0.05;100.00;94419.34;5094267;28;20715;-79
2021/03/23 01:19:24;;;;;;;15.30;5.43;;;;;;;0.06;100.00;94420.13;5094410;28;20198;-79
2021/03/23 01:21:50;;;;;;;13.77;4.87;;;;;;;0.05;100.00;94416.75;5094167;28;20198;-78
2021/03/23 01:24:16;;;;;;;12.37;4.30;;;;;;;0.05;100.00;94421.91;5094436;28;20205;-79
2021/03/23 01:26:42;;;;;;;15.40;5.53;;;;;;;0.07;100.00;94416.66;5094445;28;20206;-79
2021/03/23 01:29:08;;;;;;;15.47;5.53;;;;;;;0.09;100.00;94419.91;5094233;28;20226;-78
2021/03/23 01:31:34;;;;;;;16.80;5.47;;;;;;;0.04;100.00;94416.88;5094231;28;20229;-79
2021/03/23 01:34:00;;;;;;;17.03;5.60;;;;;;;0.02;100.00;94423.88;5093976;28;20234;-79
2021/03/23 01:36:27;;;;;;;9.70;4.83;;;;;;;0.07;100.00;94422.59;5093889;28;20280;-79
2021/03/23 01:38:53;;;;;;;10.77;4.37;;;;;;;0.04;100.00;94427.97;5094179;28;20216;-78
2021/03/23 01:41:19;;;;;;;16.97;5.27;;;;;;;0.09;100.00;94428.41;5094094;28;20202;-79
2021/03/23 01:43:45;;;;;;;17.63;5.40;;;;;;;0.16;100.00;94428.75;5094116;28;20201;-79
2021/03/23 01:46:41;;;;;;;14.60;6.05;;;;;;;0.21;100.00;94418.91;5092792;28;20937;-81
2021/03/23 01:49:10;;;;;;;8.83;4.40;;;;;;;0.11;100.00;94418.03;5093720;28;20205;-78
2021/03/23 01:51:38;;;;;;;11.97;5.40;;;;;;;0.12;100.00;94414.53;5093330;28;20228;-79
2021/03/23 01:54:12;;;;;;;14.47;5.10;;;;;;;0.08;100.00;94410.56;5093752;28;20202;-78
2021/03/23 01:56:37;;;;;;;17.67;5.53;;;;;;;0.05;100.00;94415.94;5093627;28;20222;-79
2021/03/23 01:59:06;;;;;;;11.27;5.47;;;;;;;0.05;100.00;94405.66;5093656;28;20662;-80
2021/03/23 02:01:32;;;;;;;12.50;5.03;;;;;;;0.04;100.00;94404.84;5093452;28;20225;-78
2021/03/23 02:04:00;;;;;;;9.70;4.43;;;;;;;0.01;100.00;94412.78;5093548;28;20653;-78
2021/03/23 02:06:30;;;;;;;13.00;5.30;;;;;;;0.11;100.00;94407.75;5093628;28;20288;-80
2021/03/23 02:08:58;;;;;;;16.90;6.03;;;;;;;0.05;100.00;94408.22;5093671;28;20198;-80
2021/03/23 02:11:24;;;;;;;15.07;5.20;;;;;;;-0.02;100.00;94413.88;5093357;28;20255;-80
2021/03/23 02:13:52;;;;;;;10.23;5.43;;;;;;;-0.05;100.00;94403.84;5093471;28;20198;-78
2021/03/23 02:16:18;;;;;;;9.97;4.30;;;;;;;-0.08;100.00;94408.41;5093259;28;20276;-78
2021/03/23 02:18:44;;;;;;;10.73;4.50;;;;;;;-0.04;100.00;94399.50;5093416;28;20204;-79
2021/03/23 02:21:14;;;;;;;9.70;4.77;;;;;;;-0.08;100.00;94411.78;5092888;28;20241;-78
2021/03/23 02:23:41;;;;;;;12.20;5.17;;;;;;;-0.02;100.00;94413.03;5093238;28;20283;-79
2021/03/23 02:26:11;;;;;;;11.57;4.70;;;;;;;-0.02;100.00;94413.88;5093289;28;20568;-79
2021/03/23 02:28:52;;;;;;;9.97;4.73;;;;;;;0.01;100.00;94407.66;5093404;28;20254;-80
2021/03/23 02:31:18;;;;;;;14.30;5.20;;;;;;;0.05;100.00;94408.22;5093025;28;20202;-80
2021/03/23 02:33:45;;;;;;;11.70;4.87;;;;;;;0.09;100.00;94407.88;5092607;28;20727;-79
2021/03/23 02:36:11;;;;;;;9.90;5.27;;;;;;;0.13;100.00;94405.88;5092998;28;20222;-78
2021/03/23 02:38:37;;;;;;;12.20;5.67;;;;;;;0.20;100.00;94406.19;5093100;28;20198;-79
2021/03/23 02:41:03;;;;;;;16.80;6.10;;;;;;;0.37;100.00;94403.13;5092920;28;20591;-78
2021/03/23 02:43:29;;;;;;;10.37;5.73;;;;;;;0.29;100.00;94406.28;5093082;28;20206;-79
2021/03/23 02:45:56;;;;;;;9.63;5.00;;;;;;;0.25;100.00;94399.78;5093127;28;20209;-78
2021/03/23 02:48:23;;;;;;;14.67;5.53;;;;;;;0.24;100.00;94403.28;5093048;28;20205;-79
2021/03/23 02:50:49;;;;;;;11.30;4.80;;;;;;;0.26;100.00;94398.84;5093045;28;20194;-79
2021/03/23 02:53:16;;;;;;;13.83;4.97;;;;;;;0.26;100.00;94410.84;5092344;28;20205;-78
2021/03/23 02:55:44;;;;;;;8.63;4.70;;;;;;;0.24;100.00;94398.16;5092734;28;20714;-79
2021/03/23 02:58:10;;;;;;;12.50;4.57;;;;;;;0.28;100.00;94396.94;5093039;28;20225;-81
2021/03/23 03:00:36;;;;;;;7.93;4.57;;;;;;;0.27;100.00;94397.91;5092931;28;20719;-78
2021/03/23 03:03:02;;;;;;;8.43;4.80;;;;;;;0.28;100.00;94402.09;5092918;28;20248;-79
2021/03/23 03:05:28;;;;;;;9.23;4.20;;;;;;;0.20;100.00;94404.47;5092821;28;20198;-78
2021/03/23 03:07:54;;;;;;;9.00;4.93;;;;;;;0.17;100.00;94397.00;5092672;28;20205;-78
2021/03/23 03:10:23;;;;;;;11.40;5.13;;;;;;;0.17;100.00;94405.53;5092685;28;20237;-80
2021/03/23 03:12:50;;;;;;;15.60;5.00;;;;;;;0.21;100.00;94408.66;5092835;28;20480;-80
2021/03/23 03:15:16;;;;;;;13.13;5.03;;;;;;;0.24;100.00;94408.41;5092619;28;20271;-79
2021/03/23 03:17:42;;;;;;;11.43;4.13;;;;;;;0.19;100.00;94410.53;5092661;28;20225;-79
2021/03/23 03:20:10;;;;;;;10.30;4.80;;;;;;;0.20;100.00;94412.19;5092765;28;20209;-78
2021/03/23 03:22:36;;;;;;;10.60;4.33;;;;;;;0.22;100.00;94412.03;5092638;28;20664;-78
2021/03/23 03:25:04;;;;;;;17.13;5.23;;;;;;;0.22;100.00;94409.47;5092449;28;20667;-78
2021/03/23 03:27:31;;;;;;;11.00;5.07;;;;;;;0.24;100.00;94415.31;5092661;28;20217;-77
2021/03/23 03:29:57;;;;;;;12.10;5.73;;;;;;;0.27;100.00;94407.38;5092503;28;20198;-77
2021/03/23 03:32:23;;;;;;;12.37;5.30;;;;;;;0.29;100.00;94411.44;5092917;28;20197;-78
2021/03/23 03:34:49;;;;;;;13.30;6.03;;;;;;;0.35;100.00;94404.97;5095899;28;20940;-80
2021/03/23 03:37:15;;;;;;;17.60;6.07;;;;;;;0.33;100.00;94406.84;5096247;28;20232;-80
2021/03/23 03:39:41;;;;;;;15.17;5.43;;;;;;;0.33;100.00;94410.25;5096290;28;20263;-79
2021/03/23 03:42:08;;;;;;;11.67;5.43;;;;;;;0.34;100.00;94404.16;5096661;28;20194;-80
2021/03/23 03:44:34;;;;;;;11.63;4.97;;;;;;;0.33;100.00;94405.13;5096249;28;20202;-80
2021/03/23 03:47:00;;;;;;;16.20;4.73;;;;;;;0.32;100.00;94406.06;5096156;28;20669;-80
2021/03/23 03:49:26;;;;;;;12.10;5.13;;;;;;;0.39;100.00;94403.00;5096036;28;20289;-80
2021/03/23 03:51:52;;;;;;;8.73;4.67;;;;;;;0.33;100.00;94401.72;5094456;28;20668;-78
2021/03/23 03:54:18;;;;;;;8.20;4.33;;;;;;;0.29;100.00;94396.03;5085857;28;20202;-78
2021/03/23 03:56:44;;;;;;;10.97;4.70;;;;;;;0.29;100.00;94400.34;5096116;28;20233;-79
2021/03/23 03:59:10;;;;;;;10.30;4.77;;;;;;;0.31;100.00;94399.28;5096023;28;20274;-80
2021/03/23 04:01:37;;;;;;;13.80;5.60;;;;;;;0.30;100.00;94400.22;5095828;28;20245;-81
2021/03/23 04:04:05;;;;;;;10.73;4.97;;;;;;;0.27;100.00;94397.09;5095847;28;20611;-78
2021/03/23 04:06:31;;;;;;;17.73;5.53;;;;;;;0.32;100.00;94394.97;5095615;28;20206;-78
2021/03/23 04:08:57;;;;;;;12.20;6.03;;;;;;;0.40;100.00;94402.03;5095934;28;20198;-78
2021/03/23 04:11:23;;;;;;;13.57;6.50;;;;;;;0.42;100.00;94398.44;5095394;28;20209;-78
2021/03/23 04:13:49;;;;;;;14.30;5.67;;;;;;;0.53;100.00;94400.97;5095675;28;20206;-78
2021/03/23 04:16:15;;;;;;;17.37;5.50;;;;;;;0.42;100.00;94402.72;5095629;28;20629;-78
2021/03/23 04:18:42;;;;;;;17.63;6.20;;;;;;;0.46;100.00;94406.69;5095510;28;20247;-78
2021/03/23 04:21:08;;;;;;;19.23;7.72;;;;;;;0.50;100.00;94398.63;5094264;28;20482;-78
2021/03/23 04:23:37;;;;;;;10.33;5.57;;;;;;;0.42;100.00;94402.72;5095635;28;20198;-77
2021/03/23 04:26:06;;;;;;;10.00;5.13;;;;;;;0.43;100.00;94412.06;5095484;28;20194;-79
2021/03/23 04:28:32;;;;;;;11.93;5.30;;;;;;;0.39;100.00;94413.28;5095353;28;20202;-78
2021/03/23 04:30:58;;;;;;;8.27;4.83;;;;;;;0.38;100.00;94414.19;5095135;28;20198;-79
2021/03/23 04:33:26;;;;;;;13.73;5.43;;;;;;;0.48;100.00;94407.38;5095175;28;20234;-78
2021/03/23 04:35:55;;;;;;;16.37;6.03;;;;;;;0.51;100.00;94412.28;5095025;28;20706;-79
2021/03/23 04:38:24;;;;;;;12.40;5.30;;;;;;;0.52;100.00;94411.34;5095252;28;20252;-79
2021/03/23 04:40:51;;;;;;;17.87;6.47;;;;;;;0.49;100.00;94411.59;5095286;28;20213;-80
2021/03/23 04:43:21;;;;;;;20.37;7.37;;;;;;;0.48;100.00;94409.94;5094300;28;20237;-80
2021/03/23 04:45:47;;;;;;;13.10;5.57;;;;;;;0.54;100.00;94419.75;5094949;28;20649;-80
2021/03/23 04:48:13;;;;;;;12.97;5.10;;;;;;;0.44;100.00;94419.66;5094895;28;20213;-80
2021/03/23 04:50:40;;;;;;;9.37;4.90;;;;;;;0.42;100.00;94425.84;5095115;28;20293;-78
2021/03/23 04:53:06;;;;;;;15.73;6.43;;;;;;;0.50;100.00;94426.06;5094975;28;20194;-79
2021/03/23 04:55:32;;;;;;;12.77;5.27;;;;;;;0.50;100.00;94426.06;5094769;28;20198;-78
2021/03/23 04:57:58;;;;;;;10.43;5.90;;;;;;;0.49;100.00;94435.53;5094847;28;20283;-79
2021/03/23 05:00:25;;;;;;;13.20;4.93;;;;;;;0.50;100.00;94432.03;5094777;28;20713;-80
2021/03/23 05:02:51;;;;;;;9.20;4.80;;;;;;;0.55;100.00;94439.38;5094651;28;20201;-79
2021/03/23 05:05:17;;;;;;;9.40;4.50;;;;;;;0.48;100.00;94436.47;5094906;28;20232;-78
2021/03/23 05:07:43;;;;;;;16.20;5.93;;;;;;;0.50;100.00;94438.91;5094683;28;20204;-79
2021/03/23 05:10:11;;;;;;;11.30;5.50;;;;;;;0.49;100.00;94437.28;5094709;28;20194;-78
2021/03/23 05:12:38;;;;;;;13.47;5.70;;;;;;;0.48;100.00;94436.47;5094541;28;20247;-77
2021/03/23 05:15:06;;;;;;;16.27;6.33;;;;;;;0.49;100.00;94432.16;5094269;28;20255;-77
2021/03/23 05:17:32;;;;;;;9.77;4.87;;;;;;;0.48;100.00;94440.78;5094186;28;20838;-81
2021/03/23 05:19:58;;;;;;;12.27;5.23;;;;;;;0.47;100.00;94444.31;5094487;28;20202;-79
2021/03/23 05:22:24;;;;;;;10.77;5.23;;;;;;;0.46;100.00;94440.91;5094346;28;20673;-77
2021/03/23 05:24:50;;;;;;;13.67;5.87;;;;;;;0.48;100.00;94435.63;5094380;28;20205;-78
2021/03/23 05:27:16;;;;;;;13.63;6.80;;;;;;;0.52;100.00;94440.41;5094343;28;20205;-79
2021/03/23 05:29:42;;;;;;;15.27;6.30;;;;;;;0.53;100.00;94434.34;5094142;28;20714;-79
2021/03/23 05:32:09;;;;;;;14.30;6.03;;;;;;;0.64;100.00;94440.38;5093961;28;20284;-78
2021/03/23 05:34:35;;;;;;;15.43;5.87;;;;;;;0.69;100.00;94443.38;5094303;28;20271;-78
2021/03/23 05:37:02;;;;;;;7.73;4.50;;;;;;;0.62;100.00;94435.38;5093872;28;20229;-79
2021/03/23 05:39:28;;;;;;;12.70;5.73;;;;;;;0.67;100.00;94440.94;5094030;28;20213;-79
2021/03/23 05:42:02;;;;;;;17.40;5.73;;;;;;;0.66;100.00;94443.63;5094004;28;20202;-78
2021/03/23 05:44:56;;;;;;;18.00;5.77;;;;;;;0.69;100.00;94448.53;5093461;28;20208;-79
2021/03/23 05:47:28;;;;;;;16.20;7.43;;;;;;;0.84;100.00;94446.47;5093347;28;20440;-78
2021/03/23 05:50:01;;;;;;;12.30;5.87;;;;;;;0.77;100.00;94445.31;5093886;28;20208;-78
2021/03/23 05:52:34;;;;;;;13.47;5.80;;;;;;;0.78;100.00;94446.97;5093701;28;20198;-80
2021/03/23 05:55:06;;;;;;;18.50;6.73;;;;;;;0.81;100.00;94447.53;5092977;28;20206;-77
2021/03/23 05:57:35;;;;;;;11.33;5.10;;;;;;;0.85;100.00;94448.09;5093840;28;20229;-79
2021/03/23 06:00:12;;;;;;;13.80;5.07;;;;;;;0.95;100.00;94450.72;5093722;28;20206;-78
2021/03/23 06:02:44;;;;;;;15.43;6.17;;;;;;;1.05;100.00;94449.88;5093762;28;20226;-79
2021/03/23 06:05:26;;;;;;;13.60;6.13;;;;;;;1.07;100.00;94453.13;5093584;28;20213;-80
2021/03/23 06:07:53;;;;;;;12.63;5.30;;;;;;;1.16;100.00;94450.75;5093667;28;20202;-80
2021/03/23 06:10:21;;;;;;;18.63;6.37;;;;;;;1.27;100.00;94453.25;5093662;28;20202;-77
2021/03/23 06:12:53;;;;;;;13.30;7.00;;;;;;;1.37;100.00;94446.41;5093484;28;20198;-80
2021/03/23 06:15:26;;;;;;;15.23;6.17;;;;;;;1.48;100.00;94446.31;5093469;28;20205;-79
2021/03/23 06:18:00;;;;;;;17.10;6.07;;;;;;;1.61;100.00;94451.22;5093161;28;20226;-77
2021/03/23 06:20:40;;;;;;;13.30;5.63;;;;;;;1.78;100.00;94460.13;5093505;28;20242;-78
2021/03/23 06:23:29;;;;;;;14.13;5.77;;;;;;;1.70;100.00;94457.38;5093382;28;20232;-76
2021/03/23 06:26:02;;;;;;;14.53;5.90;;;;;;;1.67;100.00;94455.06;5093149;28;20206;-79
2021/03/23 06:28:40;;;;;;;18.70;6.47;;;;;;;1.83;100.00;94464.88;5093177;28;20259;-79
2021/03/23 06:31:19;;;;;;;15.50;6.23;;;;;;;1.90;100.00;94465.16;5093339;28;20538;-78
2021/03/23 06:33:45;;;;;;;16.37;5.90;;;;;;;2.02;100.00;94461.56;5093014;28;20644;-79
2021/03/23 06:36:20;;;;;;;17.17;7.07;;;;;;;2.17;100.00;94470.53;5092874;28;20285;-78
2021/03/23 06:38:46;;;;;;;13.43;6.10;;;;;;;2.21;100.00;94474.50;5092973;28;20254;-79
2021/03/23 06:41:19;;;;;;;19.33;6.67;;;;;;;2.30;100.00;94472.88;5093160;28;20202;-79
2021/03/23 06:43:48;;;;;;;19.77;7.70;;;;;;;2.42;100.00;94472.78;5093163;28;20305;-77
2021/03/23 06:46:22;;;;;;;19.10;7.10;;;;;;;2.40;100.00;94470.31;5092416;28;20194;-79
2021/03/23 06:49:03;;;;;;;29.75;10.57;;;;;;;2.70;100.00;94478.91;5092074;28;20468;-79
2021/03/23 06:51:29;;;;;;;23.13;9.37;;;;;;;2.73;100.00;94476.03;5092884;28;20202;-79
2021/03/23 06:54:14;;;;;;;15.50;6.87;;;;;;;2.93;100.00;94482.84;5093065;28;20198;-78
2021/03/23 06:56:40;;;;;;;17.30;6.83;;;;;;;3.09;100.00;94479.69;5092527;28;20666;-78
2021/03/23 06:59:12;;;;;;;18.87;7.80;;;;;;;3.19;100.00;94490.00;5092860;28;20335;-78
2021/03/23 07:01:41;;;;;;;17.57;6.70;;;;;;;3.25;100.00;94484.31;5092733;28;20580;-77
2021/03/23 07:04:25;;;;;;;16.23;6.90;;;;;;;3.29;100.00;94485.66;5092963;28;20288;-78
2021/03/23 07:07:14;;;;;;;22.00;7.53;;;;;;;3.39;100.00;94500.31;5094300;28;20250;-78
2021/03/23 07:09:52;;;;;;;23.30;7.83;;;;;;;3.20;100.00;94501.97;5096981;28;20206;-78
2021/03/23 07:12:20;;;;;;;19.60;7.23;;;;;;;3.20;100.00;94501.97;5096985;28;20202;-77
2021/03/23 07:14:48;;;;;;;19.53;7.63;;;;;;;3.28;100.00;94496.94;5096931;28;20568;-77
2021/03/23 07:17:28;;;;;;;20.67;6.73;;;;;;;3.37;100.00;94497.88;5096882;28;20233;-78
2021/03/23 07:19:59;;;;;;;21.47;7.20;;;;;;;3.46;100.00;94499.59;5096738;28;20198;-79
2021/03/23 07:22:34;;;;;;;23.03;8.17;;;;;;;3.53;100.00;94502.47;5096550;28;20209;-77
2021/03/23 07:25:01;;;;;;;29.10;9.10;;;;;;;3.63;100.00;94498.09;5096622;28;20205;-77
2021/03/23 07:27:29;;;;;;;25.40;7.80;;;;;;;3.90;99.14;94496.53;5096680;28;20206;-76
2021/03/23 07:30:26;;;;;;;27.30;8.17;;;;;;;3.94;100.00;94500.44;5096452;28;20197;-76
2021/03/23 07:32:57;;;;;;;24.10;8.53;;;;;;;4.24;99.68;94504.50;5096371;28;20230;-76
2021/03/23 07:35:27;;;;;;;24.57;7.87;;;;;;;4.58;94.42;94495.34;5096798;28;20205;-80
2021/03/23 07:37:59;;;;;;;24.77;7.53;;;;;;;4.62;95.92;94504.47;5096482;28;20236;-79
2021/03/23 07:40:37;;;;;;;19.87;7.57;;;;;;;4.72;93.46;94505.22;5096524;28;20288;-76
2021/03/23 07:43:27;;;;;;;20.70;7.53;;;;;;;4.91;93.01;94503.44;5096292;28;20284;-78
2021/03/23 07:46:03;;;;;;;22.73;8.00;;;;;;;4.94;92.97;94503.97;5096427;28;20202;-77
2021/03/23 07:48:41;;;;;;;21.37;7.33;;;;;;;5.21;91.11;94506.63;5096265;28;20244;-78
2021/03/23 07:51:19;;;;;;;19.40;7.90;;;;;;;5.11;89.97;94515.28;5096079;28;20602;-79
2021/03/23 07:53:46;;;;;;;15.37;6.97;;;;;;;5.08;90.93;94509.56;5095319;28;20202;-77
2021/03/23 07:56:36;;;;;;;19.70;6.80;;;;;;;5.18;90.34;94511.13;5096050;28;20202;-77
2021/03/23 07:59:19;;;;;;;22.37;7.77;;;;;;;5.44;90.40;94507.78;5096001;28;20672;-76
2021/03/23 08:01:50;;;;;;;19.93;7.30;;;;;;;5.17;91.53;94512.09;5095900;28;20225;-78
2021/03/23 08:04:33;;;;;;;20.17;8.27;;;;;;;5.45;89.66;94513.78;5096170;28;20209;-79
2021/03/23 08:07:08;;;;;;;22.60;8.43;;;;;;;5.51;90.80;94511.41;5096026;28;20208;-78
2021/03/23 08:09:47;;;;;;;22.33;8.20;;;;;;;5.70;88.33;94512.97;5095883;28;20205;-77
2021/03/23 08:12:52;;;;;;;21.83;8.60;;;;;;;5.77;87.67;94512.38;5095779;28;20250;-79
2021/03/23 08:15:45;;;;;;;20.53;8.30;;;;;;;6.04;86.47;94526.97;5086430;28;20243;-78
2021/03/23 08:18:30;;;;;;;16.17;7.40;;;;;;;6.37;84.19;94516.75;5094848;28;20584;-77
2021/03/23 08:21:14;;;;;;;23.00;9.67;;;;;;;6.16;85.27;94512.78;5095574;28;20202;-78
2021/03/23 08:23:54;;;;;;;25.57;10.90;;;;;;;5.81;85.20;94519.69;5095416;28;20526;-79
2021/03/23 08:26:33;;;;;;;23.63;10.40;;;;;;;5.96;86.77;94513.94;5095463;28;20206;-78
2021/03/23 08:29:04;;;;;;;31.83;9.90;;;;;;;5.59;88.14;94515.81;5095168;28;20679;-79
2021/03/23 08:31:37;;;;;;;23.20;9.27;;;;;;;6.32;85.56;94519.81;5095682;28;20220;-77
2021/03/23 08:34:16;;;;;;;24.97;10.53;;;;;;;6.44;88.31;94517.75;5095140;28;20329;-77
2021/03/23 08:37:13;;;;;;;25.63;9.30;;;;;;;6.77;83.17;94520.47;5095302;28;20225;-77
2021/03/23 08:39:49;;;;;;;17.33;7.53;;;;;;;6.91;81.30;94517.25;5095448;28;20201;-80
2021/03/23 08:42:17;;;;;;;18.67;7.50;;;;;;;6.77;80.72;94521.25;5094811;28;20224;-78
2021/03/23 08:44:48;;;;;;;19.60;8.77;;;;;;;6.80;80.66;94523.53;5095202;28;20194;-80
2021/03/23 08:47:24;;;;;;;19.23;8.30;;;;;;;6.58;83.05;94524.94;5095200;28;20206;-79
2021/03/23 08:49:51;;;;;;;17.63;8.30;;;;;;;6.44;82.53;94526.34;5094950;28;20606;-78
2021/03/23 08:52:34;;;;;;;20.47;8.07;;;;;;;6.39;81.95;94536.38;5095133;28;20198;-78
2021/03/23 08:55:00;;;;;;;19.27;8.40;;;;;;;6.05;83.12;94533.78;5095039;28;20205;-77
2021/03/23 08:57:46;;;;;;;19.00;8.90;;;;;;;5.91;86.21;94537.72;5094886;28;20623;-79
2021/03/23 09:00:54;;;;;;;22.90;9.70;;;;;;;5.88;85.23;94527.66;5093558;28;20437;-78
2021/03/23 09:03:39;;;;;;;20.37;8.87;;;;;;;5.83;85.88;94541.06;5069932;28;20523;-78
2021/03/23 09:06:08;;;;;;;23.90;9.83;;;;;;;5.97;85.36;94536.34;5092832;28;20202;-78
2021/03/23 09:08:43;;;;;;;22.10;9.50;;;;;;;5.78;85.80;94543.31;5094492;28;20660;-79
2021/03/23 09:11:12;;;;;;;25.30;10.87;;;;;;;5.64;86.77;94549.03;5094852;28;20194;-77
2021/03/23 09:14:16;;;;;;;17.27;8.37;;;;;;;6.18;84.76;94541.13;5094637;28;20194;-77
2021/03/23 09:17:14;;;;;;;28.97;9.37;;;;;;;6.05;83.17;94539.78;5094445;28;20221;-78
2021/03/23 09:19:44;;;;;;;20.07;8.20;;;;;;;6.89;83.15;94542.53;5094634;28;20285;-76
2021/03/23 09:22:40;;;;;;;31.17;10.90;;;;;;;7.08;79.56;94545.81;5094502;28;20212;-78
2021/03/23 09:25:22;;;;;;;48.57;13.47;;;;;;;7.54;79.34;94544.44;5094341;28;20194;-75
2021/03/23 09:28:02;;;;;;;55.93;11.87;;;;;;;7.92;73.02;94536.09;5094567;28;20205;-76
2021/03/23 09:30:49;;;;;;;22.00;8.90;;;;;;;8.03;73.96;94535.75;5094282;28;20225;-79
2021/03/23 09:33:34;;;;;;;24.60;10.03;;;;;;;7.94;74.13;94540.16;5094020;28;20221;-78
2021/03/23 09:36:40;;;;;;;21.07;9.03;;;;;;;8.08;73.79;94536.06;5094415;28;20228;-78
2021/03/23 09:39:33;;;;;;;17.77;7.13;;;;;;;8.37;70.19;94537.28;5093877;28;20229;-78
2021/03/23 09:42:38;;;;;;;30.00;9.33;;;;;;;8.32;71.33;94544.78;5093980;28;20202;-78
2021/03/23 09:45:26;;;;;;;21.30;8.00;;;;;;;8.21;72.00;94537.31;5094122;28;20198;-78
2021/03/23 09:48:00;;;;;;;25.30;9.75;;;;;;;8.62;71.07;94532.03;5093130;28;20436;-78
2021/03/23 09:50:42;;;;;;;16.53;7.40;;;;;;;8.70;69.15;94538.00;5093849;28;20661;-77
2021/03/23 09:53:21;;;;;;;19.60;8.17;;;;;;;8.79;68.44;94530.97;5094015;28;20194;-78
2021/03/23 09:55:47;;;;;;;22.70;8.37;;;;;;;8.37;69.18;94526.06;5093876;28;20205;-78
2021/03/23 09:58:22;;;;;;;15.20;7.80;;;;;;;8.03;71.48;94527.97;5093687;28;20230;-78
2021/03/23 10:00:48;;;;;;;267.43;34.40;;;;;;;7.71;71.28;94537.44;5093595;28;20205;-78
2021/03/23 10:03:19;;;;;;;66.70;11.90;;;;;;;8.30;69.53;94531.13;5093883;28;20198;-79
2021/03/23 10:05:58;;;;;;;69.80;17.30;;;;;;;8.54;69.79;94532.84;5093705;28;20657;-77
2021/03/23 10:08:25;;;;;;;11.93;5.57;;;;;;;8.60;68.57;94526.19;5093803;28;20207;-77
2021/03/23 10:10:51;;;;;;;28.73;6.03;;;;;;;8.94;65.27;94518.00;5093488;28;20202;-76
2021/03/23 10:13:24;;;;;;;12.20;5.30;;;;;;;9.16;64.66;94513.00;5093338;28;20652;-77
2021/03/23 10:15:49;;;;;;;9.87;4.73;;;;;;;9.17;62.81;94520.66;5093649;28;20205;-77
2021/03/23 10:18:21;;;;;;;6.63;3.60;;;;;;;9.84;58.12;94524.34;5093464;28;20230;-76
2021/03/23 10:20:58;;;;;;;9.03;4.23;;;;;;;9.79;57.81;94516.25;5093369;28;20198;-79
2021/03/23 10:23:25;;;;;;;7.63;3.80;;;;;;;9.60;58.41;94515.78;5093599;28;20240;-79
2021/03/23 10:25:51;;;;;;;10.13;4.30;;;;;;;9.71;60.66;94516.31;5093205;28;20694;-78
2021/03/23 10:28:26;;;;;;;5.70;3.57;;;;;;;9.59;57.27;94518.53;5093491;28;20606;-77
2021/03/23 10:30:58;;;;;;;7.93;3.77;;;;;;;9.70;60.14;94512.13;5093291;28;20679;-79
2021/03/23 10:33:25;;;;;;;7.00;3.20;;;;;;;9.26;57.88;94516.22;5093223;28;20237;-77
2021/03/23 10:35:56;;;;;;;3.70;2.20;;;;;;;8.96;54.84;94510.88;5093191;28;20254;-77
2021/03/23 10:38:38;;;;;;;5.10;3.00;;;;;;;8.81;55.46;94515.16;5092972;28;20238;-78
2021/03/23 10:41:33;;;;;;;7.67;2.87;;;;;;;8.61;56.48;94525.19;5092840;28;20236;-79
2021/03/23 10:44:20;;;;;;;6.77;2.83;;;;;;;9.03;57.90;94516.19;5093142;28;20209;-77
2021/03/23 10:46:47;;;;;;;5.47;3.40;;;;;;;8.89;56.71;94518.56;5092820;28;20202;-78
2021/03/23 10:49:16;;;;;;;7.57;3.70;;;;;;;9.18;55.25;94516.28;5093164;28;20549;-77
2021/03/23 10:51:43;;;;;;;6.53;3.23;;;;;;;9.15;56.63;94507.00;5093109;28;20202;-79
2021/03/23 10:54:21;;;;;;;6.23;3.50;;;;;;;9.06;57.07;94508.03;5092977;28;20645;-78
2021/03/23 10:56:49;;;;;;;7.03;3.17;;;;;;;9.08;56.72;94517.28;5092503;28;20330;-77
2021/03/23 10:59:28;;;;;;;9.87;4.53;;;;;;;9.22;57.81;94514.94;5092818;28;20206;-77
2021/03/23 11:01:59;;;;;;;6.73;3.90;;;;;;;9.08;58.16;94514.69;5092116;28;20205;-86
2021/03/23 11:04:26;;;;;;;16.90;8.23;;;;;;;8.48;65.94;94517.94;5092960;28;20564;-78
2021/03/23 11:06:52;;;;;;;14.87;7.33;;;;;;;8.14;68.04;94519.81;5092611;28;20205;-77
2021/03/23 11:09:20;;;;;;;17.47;8.27;;;;;;;8.24;67.63;94513.59;5091983;28;20194;-78
2021/03/23 11:11:49;;;;;;;16.37;7.00;;;;;;;8.64;66.77;94517.03;5092486;28;20267;-78
2021/03/23 11:14:17;;;;;;;16.97;7.40;;;;;;;8.33;69.68;94510.78;5092951;28;20205;-77
2021/03/23 11:16:45;;;;;;;15.70;7.73;;;;;;;8.14;65.60;94508.56;5092643;28;20198;-79
2021/03/23 11:19:20;;;;;;;18.40;9.10;;;;;;;8.03;71.63;94514.97;5092758;28;20560;-78
2021/03/23 11:21:46;;;;;;;16.05;7.78;;;;;;;8.05;69.67;94510.38;5092632;28;20439;-79
2021/03/23 11:24:12;;;;;;;18.10;7.20;;;;;;;8.07;67.53;94513.63;5092711;28;20202;-78
2021/03/23 11:26:43;;;;;;;12.63;6.20;;;;;;;8.21;64.20;94500.91;5092680;28;20206;-78
2021/03/23 11:29:09;;;;;;;18.97;8.33;;;;;;;7.96;66.04;94503.59;5092602;28;20202;-77
2021/03/23 11:31:37;;;;;;;13.07;6.70;;;;;;;7.66;67.26;94503.31;5092664;28;20627;-77
2021/03/23 11:34:04;;;;;;;15.97;7.97;;;;;;;7.15;69.65;94507.88;5092481;28;20236;-78
2021/03/23 11:36:31;;;;;;;15.27;7.30;;;;;;;6.49;70.92;94518.09;5092510;28;20205;-77
2021/03/23 11:38:58;;;;;;;20.20;6.87;;;;;;;6.36;72.70;94510.78;5092278;28;20282;-77
2021/03/23 11:41:26;;;;;;;20.03;6.17;;;;;;;6.79;69.40;94515.91;5092453;28;20675;-78
2021/03/23 11:43:59;;;;;;;13.37;6.23;;;;;;;7.19;70.02;94516.94;5092615;28;20198;-77
2021/03/23 11:46:37;;;;;;;12.73;6.03;;;;;;;7.61;66.86;94508.22;5092549;28;20297;-76
2021/03/23 11:49:09;;;;;;;12.93;5.77;;;;;;;7.66;67.30;94507.69;5092258;28;20202;-76